Hualapai Flat, Nevada Weather observations

Data are for 10 minute period ending at time listed.
 Day   Time   Solar   Ave.   Ave.  Ave.  Vector  Max.   Baro.   Total    
  of    of     Rad.   Air    Rel.  Wind   Wind   Wind  Press.  Precip.   
Year   Day            Temp.  Hum.  Speed  Dir.   Gust                    
2014   (PST)  Kw/m2    F      %     mph   deg.    mph    mb.     in.     
-------------------------------------------------------------------------
 272   11:30   0.56   65.9    52    4.5   109     8.9   874.8    0.00 
 272   11:40   0.40   66.6    50    6.1   126     9.1   874.8    0.00 
 272   11:50   0.54   67.4    48    5.1   112     8.8   874.9    0.00 
 272   12:00   0.52   65.9    51    5.6   105    10.6   874.9    0.00 
 272   12:10   0.40   67.7    46    6.9   134    12.6   874.7    0.00 
 272   12:20   0.41   68.9    46    4.9   188     9.1   874.8    0.00 
 272   12:30   0.52   69.3    45    2.4   218     5.2   874.7    0.00 
 272   12:40   0.64   69.8    43    4.2   316    11.0   874.6    0.00 
 272   12:50   0.72   69.1    40    8.4   328    13.0   874.4    0.00 
 272   13:00   0.70   69.0    38    7.3   349    13.5   874.3    0.00 
 272   13:10   0.68   69.0    37   10.8   358    16.5   874.3    0.00 
 272   13:20   0.66   69.1    38    8.1   344    14.6   874.2    0.00 
 272   13:30   0.65   69.2    37    8.1   346    14.7   874.1    0.00 
 272   13:40   0.63   69.5    35    7.4   342    12.5   874.1    0.00 
 272   13:50   0.63   69.7    33    7.6   358    13.7   874.1    0.00 
 272   14:00   0.64   69.7    33    6.9   341    11.1   874.1    0.00 
 272   14:10   0.50   69.6    35    8.0     5    12.6   874.0    0.00 
 272   14:20   0.45   69.3    34    8.2   358    11.5   874.1    0.00 
 272   14:30   0.44   68.1    37    8.3   349    13.0   874.0    0.00 
 272   14:40   0.40   68.5    40    8.8   338    16.1   874.0    0.00 
 272   14:50   0.45   68.1    40    6.6    12    10.9   874.0    0.00 
 272   15:00   0.41   69.5    40    3.7    24     6.4   874.0    0.00 
 272   15:10   0.18   68.6    40    3.7    62     7.0   873.9    0.00 
 272   15:20   0.36   68.2    43    2.9   110     8.1   874.0    0.00 
 272   15:30   0.49   71.0    37    5.3   126     9.3   873.9    0.00 
 272   15:40   0.33   71.0    42    5.5    63    13.2   873.9    0.00 
 272   15:50   0.28   68.8    45    9.9   101    17.6   873.8    0.00 
 272   16:00   0.29   69.2    44    7.4   110    12.7   874.0    0.00 
 272   16:10   0.25   68.8    44    9.6   112    13.4   874.1    0.00 
 272   16:20   0.22   68.4    47    8.7   108    12.6   874.2    0.00 
 272   16:30   0.18   67.7    47    9.7   111    13.9   874.2    0.00 
 272   16:40   0.12   67.1    47    8.2   112    12.5   874.2    0.00 
 272   16:50   0.12   66.3    51    6.5    99    10.2   874.3    0.00 
 272   17:00   0.07   65.6    52    6.2    98     9.8   874.4    0.00 
 272   17:10   0.06   63.6    57    5.2    94     8.6   874.4    0.00 
 272   17:20   0.05   63.8    55    5.3   110     7.5   874.3    0.00 
 272   17:30   0.03   63.5    57    6.4   122    10.3   874.3    0.00 
 272   17:40   0.01   62.9    59    5.8   119     8.2   874.3    0.00 
 272   17:50   0.00   61.8    61    6.0   121     8.3   874.3    0.00 
 272   18:00   0.00   60.4    64    3.7   141     5.6   874.3    0.00 
 272   18:10   0.00   58.6    68    2.7   190     4.5   874.2    0.00 
 272   18:20   0.00   57.3    71    2.4   208     4.3   874.2    0.00 
 272   18:30   0.00   56.8    72    3.3   228     4.5   874.3    0.00 
 272   18:40   0.00   57.8    69    3.2   226     4.5   874.3    0.00 
 272   18:50   0.00   58.4    67    3.2   239     4.2   874.4    0.00 
 272   19:00   0.00   58.4    66    3.9   222     4.8   874.4    0.00 
 272   19:10   0.00   57.0    70    4.5   229     6.1   874.2    0.00 
 272   19:20   0.00   56.9    70    4.4   233     5.4   874.3    0.00 
 272   19:30   0.00   57.2    70    4.1   234     5.3   874.4    0.00 
 272   19:40   0.00   57.2    69    3.6   256     4.3   874.4    0.00 
 272   19:50   0.00   56.0    72    2.3   263     3.3   874.5    0.00 
 272   20:00   0.00   56.0    74    4.0   293     4.7   874.6    0.00 
 272   20:10   0.00   55.1    73    4.9   276     5.4   874.6    0.00 
 272   20:20   0.00   56.4    68    2.9   254     4.6   874.5    0.00 
 272   20:30   0.00   57.5    66    1.7   224     3.1   874.6    0.00 
 272   20:40   0.00   53.5    76    1.5   351     3.7   874.6    0.00 
 272   20:50   0.00   51.5    80    4.5    11     5.5   874.6    0.00 
 272   21:00   0.00   51.5    80    4.7   321     5.7   874.5    0.00 
 272   21:10   0.00   52.6    78    4.6   316     5.6   874.6    0.00 
 272   21:20   0.00   52.2    79    4.2   312     5.3   874.5    0.00 
 272   21:30   0.00   52.0    78    4.9   316     5.8   874.6    0.00 
 272   21:40   0.00   50.6    81    5.2   291     6.0   874.6    0.00 
 272   21:50   0.00   50.3    80    5.4   282     6.4   874.6    0.00 
 272   22:00   0.00   51.5    75    4.3   288     7.6   874.5    0.00 
 272   22:10   0.00   51.9    74    3.4   260     6.1   874.5    0.00 
 272   22:20   0.00   52.0    72    2.6   324     4.9   874.5    0.00 
 272   22:30   0.00   50.5    78    4.8   350     5.8   874.4    0.00 
 272   22:40   0.00   50.1    81    3.5   248     7.5   874.6    0.00 
 272   22:50   0.00   49.8    85    2.6   219     4.4   874.5    0.00 
 272   23:00   0.00   49.9    86    1.4   199     2.7   874.4    0.00 
 272   23:10   0.00   51.0    86    1.9   220     2.6   874.4    0.00 
 272   23:20   0.00   51.7    84    2.7   183     3.3   874.4    0.00 
 272   23:30   0.00   51.7    82    4.2   222     5.2   874.4    0.00 
 272   23:40   0.00   51.0    84    3.5   230     4.4   874.4    0.00 
 272   23:50   0.00   51.5    83    3.9   205     5.0   874.3    0.00 
 273    0:00   0.00   50.9    84    1.7   293     2.9   874.2    0.00 
 273    0:10   0.00   50.8    84    1.6   332     4.9   874.2    0.00 
 273    0:20   0.00   49.7    85    0.8    16     2.7   874.2    0.00 
 273    0:30   0.00   48.2    87    2.0    16     3.6   874.2    0.00 
 273    0:40   0.00   48.0    87    1.9   340     2.5   874.2    0.00 
 273    0:50   0.00   50.0    81    1.4   318     2.0   874.3    0.00 
 273    1:00   0.00   50.6    81    1.8   344     2.8   874.3    0.00 
 273    1:10   0.00   49.5    86    3.1   310     4.2   874.4    0.00 
 273    1:20   0.00   48.8    89    3.9   331     5.8   874.4    0.00 
 273    1:30   0.00   48.8    90    4.2   327     5.3   874.4    0.00 
 273    1:40   0.00   49.8    88    2.6   314     4.2   874.4    0.00 
 273    1:50   0.00   49.9    87    3.3   299     4.7   874.3    0.00 
 273    2:00   0.00   49.8    88    2.8   298     3.9   874.3    0.00 
 273    2:10   0.00   49.7    88    0.2    65     1.3   874.3    0.00 
 273    2:20   0.00   49.6    88    1.5    35     2.9   874.3    0.00 
 273    2:30   0.00   50.6    85    2.2   312     3.7   874.2    0.00 
 273    2:40   0.00   51.1    84    3.7   325     4.2   874.2    0.00 
 273    2:50   0.00   51.8    82    4.0   291     4.9   874.2    0.00 
 273    3:00   0.00   53.9    75    3.5   311     5.1   874.2    0.00 
 273    3:10   0.00   53.2    71    5.9   335     8.7   874.4    0.00 
 273    3:20   0.00   54.5    63    4.2   330     7.8   874.4    0.00 
 273    3:30   0.00   54.0    64    3.7   299     5.4   874.4    0.00 
 273    3:40   0.00   54.5    61    4.2   309     6.0   874.4    0.00 
 273    3:50   0.00   54.3    61    4.5   312     5.7   874.4    0.00 
 273    4:00   0.00   53.5    62    5.0   328     7.4   874.4    0.00 
 273    4:10   0.00   52.7    64    5.4   341     6.3   874.4    0.00 
 273    4:20   0.00   53.0    63    5.8   314     7.5   874.3    0.00 
 273    4:30   0.00   52.6    64    5.9   294     6.9   874.3    0.00 
 273    4:40   0.00   49.0    73    5.7   295     7.2   874.3    0.00 
 273    4:50   0.00   49.0    73    6.0   294     6.9   874.3    0.00 
 273    5:00   0.00   48.5    75    6.3   287     7.7   874.3    0.00 
 273    5:10   0.00   49.2    74    4.6   286     5.8   874.4    0.00 
 273    5:20   0.00   50.3    70    3.6   331     5.1   874.6    0.00 
 273    5:30   0.00   51.4    67    5.2   326     7.7   874.6    0.00 
 273    5:40   0.00   51.9    67    5.5   307     7.1   874.6    0.00 
 273    5:50   0.00   50.5    71    6.4   309     7.5   874.8    0.00 
 273    6:00   0.01   50.5    71    5.3   319     7.3   874.8    0.00 
 273    6:10   0.01   50.6    71    5.7   307     6.8   874.8    0.00 
 273    6:20   0.01   48.8    76    5.7   290     8.4   874.8    0.00 
 273    6:30   0.02   49.3    75    5.5   286     7.1   875.0    0.00 
 273    6:40   0.06   48.8    76    5.4   301     6.6   875.1    0.00 
 273    6:50   0.13   49.7    77    4.1   338     6.0   875.1    0.00 
 273    7:00   0.16   51.2    77    3.4   318     5.0   875.2    0.00 
 273    7:10   0.19   53.6    75    3.2   341     5.2   875.4    0.00 
 273    7:20   0.22   55.4    74    2.4   338     3.7   875.4    0.00 
 273    7:30   0.26   56.9    70    2.7   349     3.9   875.5    0.00 
 273    7:40   0.29   57.7    67    2.4   351     4.1   875.6    0.00 
 273    7:50   0.32   58.5    65    2.4     5     4.7   875.7    0.00 
 273    8:00   0.36   60.0    61    2.6     9     4.6   875.7    0.00 
 273    8:10   0.39   61.0    58    3.4   350     5.4   875.8    0.00 
 273    8:20   0.41   61.1    58    5.1    11     8.3   875.8    0.00 
 273    8:30   0.46   61.0    58    4.7    65     7.2   875.8    0.00 
 273    8:40   0.53   61.4    56    4.2    72     7.7   875.8    0.00 
 273    8:50   0.50   62.4    56    5.4   351    11.3   875.8    0.00 
 273    9:00   0.21   60.2    58    7.4   328    11.6   875.9    0.00 
 273    9:10   0.14   58.7    59    7.4   327    11.4   876.0    0.00 
 273    9:20   0.14   58.4    59    5.4   346     7.8   875.9    0.00 
 273    9:30   0.35   58.5    61    4.2   355     8.3   875.8    0.00 
 273    9:40   0.69   62.0    53    4.5    28     6.7   875.7    0.00 
 273    9:50   0.54   63.9    48    3.8    27     8.5   875.7    0.00 
 273   10:00   0.26   62.3    49    4.9   348     8.7   875.7    0.00 
 273   10:10   0.35   61.7    50    3.3   349     6.3   875.7    0.00 
 273   10:20   0.37   62.3    52    4.1    59     9.9   875.7    0.00 
 273   10:30   0.25   61.9    49    3.0   140     6.7   875.7    0.00 
 273   10:40   0.27   62.7    49    4.3    95     7.9   875.7    0.00 
 273   10:50   0.36   62.3    52    3.1    68     5.0   875.6    0.00 
 273   11:00   0.22   62.2    48    3.1    98     5.4   875.6    0.00 
 273   11:10   0.29   63.1    46    2.3   114     5.0   875.5    0.00 
 273   11:20   0.27   63.2    44    3.0   123     5.6   875.4    0.00 

Return to Hualapai Flat graphs page.


Western Regional Climate Center,wrcc@dri.edu